Terminal Aerodrome Forecast
Issued by NWS Cleveland, OH

Home | Current Version | Previous Version | Text Only | Print | Product List | Glossary Off
Versions: 1 2 3 4 5 6 7 8 9 10 11 12 13 14 15 16 17 18

000
FTUS41 KCLE 181100
TAFERI
TAF
KERI 181122Z 1812/1912 30014G24KT P6SM -RA OVC025
      TEMPO 1812/1816 6SM -RA BR OVC015
     FM181600 30014G22KT P6SM VCSH OVC025
     FM190000 32012G16KT P6SM OVC025
     FM190600 33012KT P6SM OVC035=

USA.gov is the U.S. government's official web portal to all federal, state and local government web resources and services.